sensor_id;sensor_type;location;lat;lon;timestamp;temperature;humidity
31263;DHT22;17892;52.080;9.006;2023-12-28T00:01:21;9.60;99.90
31263;DHT22;17892;52.080;9.006;2023-12-28T00:03:47;9.70;99.90
31263;DHT22;17892;52.080;9.006;2023-12-28T00:06:13;9.70;99.90
31263;DHT22;17892;52.080;9.006;2023-12-28T00:08:40;9.70;99.90
31263;DHT22;17892;52.080;9.006;2023-12-28T00:11:06;9.70;99.90
31263;DHT22;17892;52.080;9.006;2023-12-28T00:13:31;9.70;99.90
31263;DHT22;17892;52.080;9.006;2023-12-28T00:15:57;9.70;99.90
31263;DHT22;17892;52.080;9.006;2023-12-28T00:18:23;9.70;99.90
31263;DHT22;17892;52.080;9.006;2023-12-28T00:20:49;9.70;99.90
31263;DHT22;17892;52.080;9.006;2023-12-28T00:23:15;9.70;99.90
31263;DHT22;17892;52.080;9.006;2023-12-28T00:25:41;9.70;99.90
31263;DHT22;17892;52.080;9.006;2023-12-28T00:28:06;9.70;99.90
31263;DHT22;17892;52.080;9.006;2023-12-28T00:30:32;9.70;99.90
31263;DHT22;17892;52.080;9.006;2023-12-28T00:32:58;9.60;99.90
31263;DHT22;17892;52.080;9.006;2023-12-28T00:35:24;9.60;99.90
31263;DHT22;17892;52.080;9.006;2023-12-28T00:37:50;9.60;99.90
31263;DHT22;17892;52.080;9.006;2023-12-28T00:40:15;9.60;99.90
31263;DHT22;17892;52.080;9.006;2023-12-28T00:42:41;9.60;99.90
31263;DHT22;17892;52.080;9.006;2023-12-28T00:45:08;9.50;99.90
31263;DHT22;17892;52.080;9.006;2023-12-28T00:47:34;9.50;99.90
31263;DHT22;17892;52.080;9.006;2023-12-28T00:50:00;9.50;99.90
31263;DHT22;17892;52.080;9.006;2023-12-28T00:52:26;9.50;99.90
31263;DHT22;17892;52.080;9.006;2023-12-28T00:54:51;9.50;99.90
31263;DHT22;17892;52.080;9.006;2023-12-28T00:57:17;9.50;99.90
31263;DHT22;17892;52.080;9.006;2023-12-28T00:59:43;9.50;99.90
31263;DHT22;17892;52.080;9.006;2023-12-28T01:02:09;9.50;99.90
31263;DHT22;17892;52.080;9.006;2023-12-28T01:04:35;9.50;99.90
31263;DHT22;17892;52.080;9.006;2023-12-28T01:07:00;9.50;99.90
31263;DHT22;17892;52.080;9.006;2023-12-28T01:09:28;9.50;99.90
31263;DHT22;17892;52.080;9.006;2023-12-28T01:11:54;9.50;99.90
31263;DHT22;17892;52.080;9.006;2023-12-28T01:14:19;9.50;99.90
31263;DHT22;17892;52.080;9.006;2023-12-28T01:16:45;9.50;99.90
31263;DHT22;17892;52.080;9.006;2023-12-28T01:19:11;9.50;99.90
31263;DHT22;17892;52.080;9.006;2023-12-28T01:21:37;9.50;99.90
31263;DHT22;17892;52.080;9.006;2023-12-28T01:24:02;9.50;99.90
31263;DHT22;17892;52.080;9.006;2023-12-28T01:26:28;9.50;99.90
31263;DHT22;17892;52.080;9.006;2023-12-28T01:28:54;9.50;99.90
31263;DHT22;17892;52.080;9.006;2023-12-28T01:31:19;9.50;99.90
31263;DHT22;17892;52.080;9.006;2023-12-28T01:33:45;9.60;99.90
31263;DHT22;17892;52.080;9.006;2023-12-28T01:36:18;9.60;99.90
31263;DHT22;17892;52.080;9.006;2023-12-28T01:38:44;9.60;99.90
31263;DHT22;17892;52.080;9.006;2023-12-28T01:41:10;9.60;99.90
31263;DHT22;17892;52.080;9.006;2023-12-28T01:43:36;9.60;99.90
31263;DHT22;17892;52.080;9.006;2023-12-28T01:46:02;9.60;99.90
31263;DHT22;17892;52.080;9.006;2023-12-28T01:48:28;9.60;99.90
31263;DHT22;17892;52.080;9.006;2023-12-28T01:50:56;9.70;99.90
31263;DHT22;17892;52.080;9.006;2023-12-28T01:53:22;9.70;99.90
31263;DHT22;17892;52.080;9.006;2023-12-28T01:55:48;9.70;99.90
31263;DHT22;17892;52.080;9.006;2023-12-28T01:58:14;9.70;99.90
31263;DHT22;17892;52.080;9.006;2023-12-28T02:00:40;9.80;99.90
31263;DHT22;17892;52.080;9.006;2023-12-28T02:03:08;9.80;99.90
31263;DHT22;17892;52.080;9.006;2023-12-28T02:05:33;9.90;99.90
31263;DHT22;17892;52.080;9.006;2023-12-28T02:07:59;9.90;99.90
31263;DHT22;17892;52.080;9.006;2023-12-28T02:10:25;9.90;99.90
31263;DHT22;17892;52.080;9.006;2023-12-28T02:12:51;10.00;99.90
31263;DHT22;17892;52.080;9.006;2023-12-28T02:15:19;10.00;99.90
31263;DHT22;17892;52.080;9.006;2023-12-28T02:17:55;10.10;99.90
31263;DHT22;17892;52.080;9.006;2023-12-28T02:20:27;10.10;99.90
31263;DHT22;17892;52.080;9.006;2023-12-28T02:22:55;10.20;99.90
31263;DHT22;17892;52.080;9.006;2023-12-28T02:25:21;10.20;99.90
31263;DHT22;17892;52.080;9.006;2023-12-28T02:27:49;10.20;99.90
31263;DHT22;17892;52.080;9.006;2023-12-28T02:30:20;10.20;99.90
31263;DHT22;17892;52.080;9.006;2023-12-28T02:33:07;10.20;99.90
31263;DHT22;17892;52.080;9.006;2023-12-28T02:35:57;10.30;99.90
31263;DHT22;17892;52.080;9.006;2023-12-28T02:38:24;10.30;99.90
31263;DHT22;17892;52.080;9.006;2023-12-28T02:40:51;10.30;99.90
31263;DHT22;17892;52.080;9.006;2023-12-28T02:43:17;10.40;99.90
31263;DHT22;17892;52.080;9.006;2023-12-28T02:45:43;10.40;99.90
31263;DHT22;17892;52.080;9.006;2023-12-28T02:48:08;10.40;99.90
31263;DHT22;17892;52.080;9.006;2023-12-28T02:50:34;10.40;99.90
31263;DHT22;17892;52.080;9.006;2023-12-28T02:53:00;10.40;99.90
31263;DHT22;17892;52.080;9.006;2023-12-28T02:55:26;10.40;99.90
31263;DHT22;17892;52.080;9.006;2023-12-28T02:57:53;10.50;99.90
31263;DHT22;17892;52.080;9.006;2023-12-28T03:00:21;10.50;99.90
31263;DHT22;17892;52.080;9.006;2023-12-28T03:02:46;10.50;99.90
31263;DHT22;17892;52.080;9.006;2023-12-28T03:05:12;10.60;99.90
31263;DHT22;17892;52.080;9.006;2023-12-28T03:07:38;10.60;99.90
31263;DHT22;17892;52.080;9.006;2023-12-28T03:10:06;10.60;99.90
31263;DHT22;17892;52.080;9.006;2023-12-28T03:12:32;10.60;99.90
31263;DHT22;17892;52.080;9.006;2023-12-28T03:14:58;10.70;99.90
31263;DHT22;17892;52.080;9.006;2023-12-28T03:17:24;10.70;99.90
31263;DHT22;17892;52.080;9.006;2023-12-28T03:19:49;10.70;99.90
31263;DHT22;17892;52.080;9.006;2023-12-28T03:22:15;10.70;99.90
31263;DHT22;17892;52.080;9.006;2023-12-28T03:24:43;10.70;99.90
31263;DHT22;17892;52.080;9.006;2023-12-28T03:27:08;10.70;99.90
31263;DHT22;17892;52.080;9.006;2023-12-28T03:29:34;10.70;99.90
31263;DHT22;17892;52.080;9.006;2023-12-28T03:32:00;10.80;99.90
31263;DHT22;17892;52.080;9.006;2023-12-28T03:34:26;10.70;99.90
31263;DHT22;17892;52.080;9.006;2023-12-28T03:36:54;10.70;99.90
31263;DHT22;17892;52.080;9.006;2023-12-28T03:39:20;10.70;99.90
31263;DHT22;17892;52.080;9.006;2023-12-28T03:41:47;10.70;99.90
31263;DHT22;17892;52.080;9.006;2023-12-28T03:44:13;10.70;99.90
31263;DHT22;17892;52.080;9.006;2023-12-28T03:46:38;10.70;99.90
31263;DHT22;17892;52.080;9.006;2023-12-28T03:49:04;10.70;99.90
31263;DHT22;17892;52.080;9.006;2023-12-28T03:51:30;10.80;99.90
31263;DHT22;17892;52.080;9.006;2023-12-28T03:53:56;10.80;99.90
31263;DHT22;17892;52.080;9.006;2023-12-28T03:56:25;10.80;99.90
31263;DHT22;17892;52.080;9.006;2023-12-28T03:58:52;10.70;99.90
31263;DHT22;17892;52.080;9.006;2023-12-28T04:01:22;10.70;99.90
31263;DHT22;17892;52.080;9.006;2023-12-28T04:03:48;10.70;99.90
31263;DHT22;17892;52.080;9.006;2023-12-28T04:06:15;10.80;99.90
31263;DHT22;17892;52.080;9.006;2023-12-28T04:08:44;10.70;99.90
31263;DHT22;17892;52.080;9.006;2023-12-28T04:11:09;10.70;99.90
31263;DHT22;17892;52.080;9.006;2023-12-28T04:13:36;10.70;99.90
31263;DHT22;17892;52.080;9.006;2023-12-28T04:16:02;10.70;99.90
31263;DHT22;17892;52.080;9.006;2023-12-28T04:18:29;10.70;99.90
31263;DHT22;17892;52.080;9.006;2023-12-28T04:20:55;10.70;99.90
31263;DHT22;17892;52.080;9.006;2023-12-28T04:23:20;10.70;99.90
31263;DHT22;17892;52.080;9.006;2023-12-28T04:25:46;10.60;99.90
31263;DHT22;17892;52.080;9.006;2023-12-28T04:28:12;10.70;99.90
31263;DHT22;17892;52.080;9.006;2023-12-28T04:30:37;10.70;99.90
31263;DHT22;17892;52.080;9.006;2023-12-28T04:33:03;10.70;99.90
31263;DHT22;17892;52.080;9.006;2023-12-28T04:35:29;10.70;99.90
31263;DHT22;17892;52.080;9.006;2023-12-28T04:37:55;10.70;99.90
31263;DHT22;17892;52.080;9.006;2023-12-28T04:40:21;10.80;99.90
31263;DHT22;17892;52.080;9.006;2023-12-28T04:42:47;10.80;99.90
31263;DHT22;17892;52.080;9.006;2023-12-28T04:45:13;10.80;99.90
31263;DHT22;17892;52.080;9.006;2023-12-28T04:47:39;10.80;99.90
31263;DHT22;17892;52.080;9.006;2023-12-28T04:50:06;10.80;99.90
31263;DHT22;17892;52.080;9.006;2023-12-28T04:52:32;10.90;99.90
31263;DHT22;17892;52.080;9.006;2023-12-28T04:54:58;10.90;99.90
31263;DHT22;17892;52.080;9.006;2023-12-28T04:57:24;10.90;99.90
31263;DHT22;17892;52.080;9.006;2023-12-28T04:59:51;10.90;99.90
31263;DHT22;17892;52.080;9.006;2023-12-28T05:02:17;10.90;99.90
31263;DHT22;17892;52.080;9.006;2023-12-28T05:04:43;10.90;99.90
31263;DHT22;17892;52.080;9.006;2023-12-28T05:07:09;11.00;99.90
31263;DHT22;17892;52.080;9.006;2023-12-28T05:09:35;10.80;99.90
31263;DHT22;17892;52.080;9.006;2023-12-28T05:12:01;11.00;99.90
31263;DHT22;17892;52.080;9.006;2023-12-28T05:14:26;11.00;99.90
31263;DHT22;17892;52.080;9.006;2023-12-28T05:16:52;11.00;99.90
31263;DHT22;17892;52.080;9.006;2023-12-28T05:19:18;11.00;99.90
31263;DHT22;17892;52.080;9.006;2023-12-28T05:21:43;11.00;99.90
31263;DHT22;17892;52.080;9.006;2023-12-28T05:24:10;11.00;99.90
31263;DHT22;17892;52.080;9.006;2023-12-28T05:26:36;11.00;99.90
31263;DHT22;17892;52.080;9.006;2023-12-28T05:29:02;11.00;99.90
31263;DHT22;17892;52.080;9.006;2023-12-28T05:31:28;11.00;99.90
31263;DHT22;17892;52.080;9.006;2023-12-28T05:33:53;11.00;99.90
31263;DHT22;17892;52.080;9.006;2023-12-28T05:36:19;11.00;99.90
31263;DHT22;17892;52.080;9.006;2023-12-28T05:38:45;11.00;99.90
31263;DHT22;17892;52.080;9.006;2023-12-28T05:41:10;11.00;99.90
31263;DHT22;17892;52.080;9.006;2023-12-28T05:43:37;11.00;99.90
31263;DHT22;17892;52.080;9.006;2023-12-28T05:46:04;11.00;99.90
31263;DHT22;17892;52.080;9.006;2023-12-28T05:48:30;11.10;99.90
31263;DHT22;17892;52.080;9.006;2023-12-28T05:51:00;11.10;99.90
31263;DHT22;17892;52.080;9.006;2023-12-28T05:53:26;11.10;99.90
31263;DHT22;17892;52.080;9.006;2023-12-28T05:55:53;11.10;99.90
31263;DHT22;17892;52.080;9.006;2023-12-28T05:58:19;11.10;99.90
31263;DHT22;17892;52.080;9.006;2023-12-28T06:00:45;11.10;99.90
31263;DHT22;17892;52.080;9.006;2023-12-28T06:03:13;11.10;99.90
31263;DHT22;17892;52.080;9.006;2023-12-28T06:05:40;11.10;99.90
31263;DHT22;17892;52.080;9.006;2023-12-28T06:08:06;11.20;99.90
31263;DHT22;17892;52.080;9.006;2023-12-28T06:10:31;11.10;99.90
31263;DHT22;17892;52.080;9.006;2023-12-28T06:12:57;11.20;99.90
31263;DHT22;17892;52.080;9.006;2023-12-28T06:15:23;11.10;99.90
31263;DHT22;17892;52.080;9.006;2023-12-28T06:17:49;11.10;99.90
31263;DHT22;17892;52.080;9.006;2023-12-28T06:20:14;11.10;99.90
31263;DHT22;17892;52.080;9.006;2023-12-28T06:22:40;11.10;99.90
31263;DHT22;17892;52.080;9.006;2023-12-28T06:25:06;11.00;99.90
31263;DHT22;17892;52.080;9.006;2023-12-28T06:27:32;11.00;99.90
31263;DHT22;17892;52.080;9.006;2023-12-28T06:29:58;11.00;99.90
31263;DHT22;17892;52.080;9.006;2023-12-28T06:32:24;10.90;99.90
31263;DHT22;17892;52.080;9.006;2023-12-28T06:34:50;10.90;99.90
31263;DHT22;17892;52.080;9.006;2023-12-28T06:37:16;10.90;99.90
31263;DHT22;17892;52.080;9.006;2023-12-28T06:39:41;10.90;99.90
31263;DHT22;17892;52.080;9.006;2023-12-28T06:42:07;10.80;99.90
31263;DHT22;17892;52.080;9.006;2023-12-28T06:44:33;10.90;99.90
31263;DHT22;17892;52.080;9.006;2023-12-28T06:46:59;10.80;99.90
31263;DHT22;17892;52.080;9.006;2023-12-28T06:49:25;10.80;99.90
31263;DHT22;17892;52.080;9.006;2023-12-28T06:51:51;10.80;99.90
31263;DHT22;17892;52.080;9.006;2023-12-28T06:54:17;10.80;99.90
31263;DHT22;17892;52.080;9.006;2023-12-28T06:56:42;10.80;99.90
31263;DHT22;17892;52.080;9.006;2023-12-28T06:59:09;10.80;99.90
31263;DHT22;17892;52.080;9.006;2023-12-28T07:01:38;10.80;99.90
31263;DHT22;17892;52.080;9.006;2023-12-28T07:04:05;10.80;99.90
31263;DHT22;17892;52.080;9.006;2023-12-28T07:06:30;10.70;99.90
31263;DHT22;17892;52.080;9.006;2023-12-28T07:08:56;10.80;99.90
31263;DHT22;17892;52.080;9.006;2023-12-28T07:11:22;10.90;99.90
31263;DHT22;17892;52.080;9.006;2023-12-28T07:13:48;10.90;99.90
31263;DHT22;17892;52.080;9.006;2023-12-28T07:16:14;10.90;99.90
31263;DHT22;17892;52.080;9.006;2023-12-28T07:18:39;10.90;99.90
31263;DHT22;17892;52.080;9.006;2023-12-28T07:21:05;10.80;99.90
31263;DHT22;17892;52.080;9.006;2023-12-28T07:23:34;10.80;99.90
31263;DHT22;17892;52.080;9.006;2023-12-28T07:26:00;10.80;99.90
31263;DHT22;17892;52.080;9.006;2023-12-28T07:28:26;10.80;99.90
31263;DHT22;17892;52.080;9.006;2023-12-28T07:30:51;10.80;99.90
31263;DHT22;17892;52.080;9.006;2023-12-28T07:33:18;10.80;99.90
31263;DHT22;17892;52.080;9.006;2023-12-28T07:35:43;10.80;99.90
31263;DHT22;17892;52.080;9.006;2023-12-28T07:38:09;10.90;99.90
31263;DHT22;17892;52.080;9.006;2023-12-28T07:40:35;10.90;99.90
31263;DHT22;17892;52.080;9.006;2023-12-28T07:43:01;10.90;99.90
31263;DHT22;17892;52.080;9.006;2023-12-28T07:45:27;10.90;99.90
31263;DHT22;17892;52.080;9.006;2023-12-28T07:47:53;10.90;99.90
31263;DHT22;17892;52.080;9.006;2023-12-28T07:50:19;10.90;99.90
31263;DHT22;17892;52.080;9.006;2023-12-28T07:52:45;10.90;99.90
31263;DHT22;17892;52.080;9.006;2023-12-28T07:55:12;10.90;99.90
31263;DHT22;17892;52.080;9.006;2023-12-28T07:57:38;10.90;99.90
31263;DHT22;17892;52.080;9.006;2023-12-28T08:00:04;10.90;99.90
31263;DHT22;17892;52.080;9.006;2023-12-28T08:02:30;10.90;99.90
31263;DHT22;17892;52.080;9.006;2023-12-28T08:04:56;10.90;99.90
31263;DHT22;17892;52.080;9.006;2023-12-28T08:07:22;10.90;99.90
31263;DHT22;17892;52.080;9.006;2023-12-28T08:09:47;10.90;99.90
31263;DHT22;17892;52.080;9.006;2023-12-28T08:12:13;10.90;99.90
31263;DHT22;17892;52.080;9.006;2023-12-28T08:14:39;10.90;99.90
31263;DHT22;17892;52.080;9.006;2023-12-28T08:17:04;10.90;99.90
31263;DHT22;17892;52.080;9.006;2023-12-28T08:19:30;10.90;99.90
31263;DHT22;17892;52.080;9.006;2023-12-28T08:21:56;10.90;99.90
31263;DHT22;17892;52.080;9.006;2023-12-28T08:24:21;11.00;99.90
31263;DHT22;17892;52.080;9.006;2023-12-28T08:26:47;11.00;99.90
31263;DHT22;17892;52.080;9.006;2023-12-28T08:29:13;11.00;99.90
31263;DHT22;17892;52.080;9.006;2023-12-28T08:31:39;11.00;99.90
31263;DHT22;17892;52.080;9.006;2023-12-28T08:34:04;11.00;99.90
31263;DHT22;17892;52.080;9.006;2023-12-28T08:36:30;11.00;99.90
31263;DHT22;17892;52.080;9.006;2023-12-28T08:38:56;11.10;99.90
31263;DHT22;17892;52.080;9.006;2023-12-28T08:41:22;11.10;99.90
31263;DHT22;17892;52.080;9.006;2023-12-28T08:43:52;11.00;99.90
31263;DHT22;17892;52.080;9.006;2023-12-28T08:46:20;11.00;99.90
31263;DHT22;17892;52.080;9.006;2023-12-28T08:48:47;11.10;99.90
31263;DHT22;17892;52.080;9.006;2023-12-28T08:51:13;10.90;99.90
31263;DHT22;17892;52.080;9.006;2023-12-28T08:53:40;11.10;99.90
31263;DHT22;17892;52.080;9.006;2023-12-28T08:56:13;11.10;99.90
31263;DHT22;17892;52.080;9.006;2023-12-28T08:58:41;11.20;99.90
31263;DHT22;17892;52.080;9.006;2023-12-28T09:01:07;11.20;99.90
31263;DHT22;17892;52.080;9.006;2023-12-28T09:03:32;11.20;99.90
31263;DHT22;17892;52.080;9.006;2023-12-28T09:05:58;11.20;99.90
31263;DHT22;17892;52.080;9.006;2023-12-28T09:08:24;11.30;99.90
31263;DHT22;17892;52.080;9.006;2023-12-28T09:10:49;11.30;99.90
31263;DHT22;17892;52.080;9.006;2023-12-28T09:13:16;11.30;99.90
31263;DHT22;17892;52.080;9.006;2023-12-28T09:15:45;11.40;99.90
31263;DHT22;17892;52.080;9.006;2023-12-28T09:18:11;11.40;99.90
31263;DHT22;17892;52.080;9.006;2023-12-28T09:20:37;11.40;99.90
31263;DHT22;17892;52.080;9.006;2023-12-28T09:23:02;11.40;99.90
31263;DHT22;17892;52.080;9.006;2023-12-28T09:25:28;11.40;99.90
31263;DHT22;17892;52.080;9.006;2023-12-28T09:27:54;11.50;99.90
31263;DHT22;17892;52.080;9.006;2023-12-28T09:30:19;11.50;99.90
31263;DHT22;17892;52.080;9.006;2023-12-28T09:32:45;11.50;99.90
31263;DHT22;17892;52.080;9.006;2023-12-28T09:35:11;11.60;99.90
31263;DHT22;17892;52.080;9.006;2023-12-28T09:37:36;11.60;99.90
31263;DHT22;17892;52.080;9.006;2023-12-28T09:40:02;11.60;99.90
31263;DHT22;17892;52.080;9.006;2023-12-28T09:42:32;11.70;99.90
31263;DHT22;17892;52.080;9.006;2023-12-28T09:45:06;11.70;99.90
31263;DHT22;17892;52.080;9.006;2023-12-28T09:47:32;11.70;99.90
31263;DHT22;17892;52.080;9.006;2023-12-28T09:49:59;11.80;99.90
31263;DHT22;17892;52.080;9.006;2023-12-28T09:52:24;11.80;99.90
31263;DHT22;17892;52.080;9.006;2023-12-28T09:54:50;11.80;99.90
31263;DHT22;17892;52.080;9.006;2023-12-28T09:57:16;11.80;99.90
31263;DHT22;17892;52.080;9.006;2023-12-28T09:59:42;11.90;99.90
31263;DHT22;17892;52.080;9.006;2023-12-28T10:02:10;11.90;99.90
31263;DHT22;17892;52.080;9.006;2023-12-28T10:04:36;12.00;99.90
31263;DHT22;17892;52.080;9.006;2023-12-28T10:07:02;12.00;99.90
31263;DHT22;17892;52.080;9.006;2023-12-28T10:09:28;12.00;99.90
31263;DHT22;17892;52.080;9.006;2023-12-28T10:11:54;12.10;99.90
31263;DHT22;17892;52.080;9.006;2023-12-28T10:14:20;12.10;99.90
31263;DHT22;17892;52.080;9.006;2023-12-28T10:16:46;12.10;99.90
31263;DHT22;17892;52.080;9.006;2023-12-28T10:19:12;12.10;99.90
31263;DHT22;17892;52.080;9.006;2023-12-28T10:21:43;12.10;99.90
31263;DHT22;17892;52.080;9.006;2023-12-28T10:24:10;12.20;99.90
31263;DHT22;17892;52.080;9.006;2023-12-28T10:26:36;12.20;99.90
31263;DHT22;17892;52.080;9.006;2023-12-28T10:29:02;12.20;99.90
31263;DHT22;17892;52.080;9.006;2023-12-28T10:31:28;12.30;99.90
31263;DHT22;17892;52.080;9.006;2023-12-28T10:33:58;12.30;99.90
31263;DHT22;17892;52.080;9.006;2023-12-28T10:36:28;12.40;99.90
31263;DHT22;17892;52.080;9.006;2023-12-28T10:38:54;12.40;99.90
31263;DHT22;17892;52.080;9.006;2023-12-28T10:41:20;12.40;99.90
31263;DHT22;17892;52.080;9.006;2023-12-28T10:44:04;12.40;99.90
31263;DHT22;17892;52.080;9.006;2023-12-28T10:46:32;12.40;99.90
31263;DHT22;17892;52.080;9.006;2023-12-28T10:49:18;12.40;99.90
31263;DHT22;17892;52.080;9.006;2023-12-28T10:51:51;12.40;99.90
31263;DHT22;17892;52.080;9.006;2023-12-28T10:54:44;12.50;99.90
31263;DHT22;17892;52.080;9.006;2023-12-28T10:57:39;12.50;99.90
31263;DHT22;17892;52.080;9.006;2023-12-28T11:00:11;12.50;99.90
31263;DHT22;17892;52.080;9.006;2023-12-28T11:02:44;12.50;99.90
31263;DHT22;17892;52.080;9.006;2023-12-28T11:05:12;12.50;99.90
31263;DHT22;17892;52.080;9.006;2023-12-28T11:07:39;12.50;99.90
31263;DHT22;17892;52.080;9.006;2023-12-28T11:10:07;12.50;99.90
31263;DHT22;17892;52.080;9.006;2023-12-28T11:12:33;12.50;99.90
31263;DHT22;17892;52.080;9.006;2023-12-28T11:14:59;12.40;99.90
31263;DHT22;17892;52.080;9.006;2023-12-28T11:17:28;12.40;99.90
31263;DHT22;17892;52.080;9.006;2023-12-28T11:19:56;12.40;99.90
31263;DHT22;17892;52.080;9.006;2023-12-28T11:22:22;12.40;99.90
31263;DHT22;17892;52.080;9.006;2023-12-28T11:24:51;12.50;99.90
31263;DHT22;17892;52.080;9.006;2023-12-28T11:27:18;12.50;99.90
31263;DHT22;17892;52.080;9.006;2023-12-28T11:29:44;12.50;99.90
31263;DHT22;17892;52.080;9.006;2023-12-28T11:32:10;12.50;99.90
31263;DHT22;17892;52.080;9.006;2023-12-28T11:34:36;12.50;99.90
31263;DHT22;17892;52.080;9.006;2023-12-28T11:37:07;12.50;99.90
31263;DHT22;17892;52.080;9.006;2023-12-28T11:39:36;12.60;99.90
31263;DHT22;17892;52.080;9.006;2023-12-28T11:42:07;12.60;99.90
31263;DHT22;17892;52.080;9.006;2023-12-28T11:44:43;12.60;99.90
31263;DHT22;17892;52.080;9.006;2023-12-28T11:47:22;12.70;99.90
31263;DHT22;17892;52.080;9.006;2023-12-28T11:49:49;12.70;99.90
31263;DHT22;17892;52.080;9.006;2023-12-28T11:52:31;12.80;99.90
31263;DHT22;17892;52.080;9.006;2023-12-28T11:54:57;12.80;99.90
31263;DHT22;17892;52.080;9.006;2023-12-28T11:57:25;12.80;99.90
31263;DHT22;17892;52.080;9.006;2023-12-28T11:59:56;12.90;99.90
31263;DHT22;17892;52.080;9.006;2023-12-28T12:02:23;12.90;99.90
31263;DHT22;17892;52.080;9.006;2023-12-28T12:04:54;12.90;99.90
31263;DHT22;17892;52.080;9.006;2023-12-28T12:07:20;12.90;99.90
31263;DHT22;17892;52.080;9.006;2023-12-28T12:09:45;12.90;99.90
31263;DHT22;17892;52.080;9.006;2023-12-28T12:12:11;12.90;99.90
31263;DHT22;17892;52.080;9.006;2023-12-28T12:14:37;12.90;99.90
31263;DHT22;17892;52.080;9.006;2023-12-28T12:17:03;13.00;99.90
31263;DHT22;17892;52.080;9.006;2023-12-28T12:19:29;13.00;99.90
31263;DHT22;17892;52.080;9.006;2023-12-28T12:21:56;13.00;99.90
31263;DHT22;17892;52.080;9.006;2023-12-28T12:24:22;13.00;99.90
31263;DHT22;17892;52.080;9.006;2023-12-28T12:26:51;12.90;99.90
31263;DHT22;17892;52.080;9.006;2023-12-28T12:29:17;12.90;99.90
31263;DHT22;17892;52.080;9.006;2023-12-28T12:31:45;12.90;99.90
31263;DHT22;17892;52.080;9.006;2023-12-28T12:34:14;12.90;99.90
31263;DHT22;17892;52.080;9.006;2023-12-28T12:36:41;13.00;99.90
31263;DHT22;17892;52.080;9.006;2023-12-28T12:39:09;13.00;99.90
31263;DHT22;17892;52.080;9.006;2023-12-28T12:41:36;13.00;99.90
31263;DHT22;17892;52.080;9.006;2023-12-28T12:44:03;13.00;99.90
31263;DHT22;17892;52.080;9.006;2023-12-28T12:46:30;13.00;99.90
31263;DHT22;17892;52.080;9.006;2023-12-28T12:48:59;13.00;99.90
31263;DHT22;17892;52.080;9.006;2023-12-28T12:51:28;13.00;99.90
31263;DHT22;17892;52.080;9.006;2023-12-28T12:54:00;13.00;99.90
31263;DHT22;17892;52.080;9.006;2023-12-28T12:56:30;13.00;99.90
31263;DHT22;17892;52.080;9.006;2023-12-28T12:58:57;13.00;99.90
31263;DHT22;17892;52.080;9.006;2023-12-28T13:01:23;13.00;99.90
31263;DHT22;17892;52.080;9.006;2023-12-28T13:03:50;13.00;99.90
31263;DHT22;17892;52.080;9.006;2023-12-28T13:06:16;13.00;99.90
31263;DHT22;17892;52.080;9.006;2023-12-28T13:08:41;13.00;99.90
31263;DHT22;17892;52.080;9.006;2023-12-28T13:11:07;13.00;99.90
31263;DHT22;17892;52.080;9.006;2023-12-28T13:13:33;13.00;99.90
31263;DHT22;17892;52.080;9.006;2023-12-28T13:16:00;13.00;99.90
31263;DHT22;17892;52.080;9.006;2023-12-28T13:18:26;13.00;99.90
31263;DHT22;17892;52.080;9.006;2023-12-28T13:20:51;13.00;99.90
31263;DHT22;17892;52.080;9.006;2023-12-28T13:23:17;13.00;99.90
31263;DHT22;17892;52.080;9.006;2023-12-28T13:25:43;13.00;99.90
31263;DHT22;17892;52.080;9.006;2023-12-28T13:28:09;13.00;99.90
31263;DHT22;17892;52.080;9.006;2023-12-28T13:30:35;13.00;99.90
31263;DHT22;17892;52.080;9.006;2023-12-28T13:33:03;13.00;99.90
31263;DHT22;17892;52.080;9.006;2023-12-28T13:35:28;13.00;99.90
31263;DHT22;17892;52.080;9.006;2023-12-28T13:37:54;13.00;99.90
31263;DHT22;17892;52.080;9.006;2023-12-28T13:40:20;12.90;99.90
31263;DHT22;17892;52.080;9.006;2023-12-28T13:42:46;13.00;99.90
31263;DHT22;17892;52.080;9.006;2023-12-28T13:45:12;12.90;99.90
31263;DHT22;17892;52.080;9.006;2023-12-28T13:47:38;12.90;99.90
31263;DHT22;17892;52.080;9.006;2023-12-28T13:50:04;12.90;99.90
31263;DHT22;17892;52.080;9.006;2023-12-28T13:52:32;12.80;99.90
31263;DHT22;17892;52.080;9.006;2023-12-28T13:54:57;12.90;99.90
31263;DHT22;17892;52.080;9.006;2023-12-28T13:57:23;12.80;99.90
31263;DHT22;17892;52.080;9.006;2023-12-28T13:59:49;12.80;99.90
31263;DHT22;17892;52.080;9.006;2023-12-28T14:02:14;12.70;99.90
31263;DHT22;17892;52.080;9.006;2023-12-28T14:04:40;12.70;99.90
31263;DHT22;17892;52.080;9.006;2023-12-28T14:07:05;12.70;99.90
31263;DHT22;17892;52.080;9.006;2023-12-28T14:09:31;12.70;99.90
31263;DHT22;17892;52.080;9.006;2023-12-28T14:11:58;12.70;99.90
31263;DHT22;17892;52.080;9.006;2023-12-28T14:14:24;12.70;99.90
31263;DHT22;17892;52.080;9.006;2023-12-28T14:16:50;12.60;99.90
31263;DHT22;17892;52.080;9.006;2023-12-28T14:19:15;12.60;99.90
31263;DHT22;17892;52.080;9.006;2023-12-28T14:21:41;12.60;99.90
31263;DHT22;17892;52.080;9.006;2023-12-28T14:24:07;12.60;99.90
31263;DHT22;17892;52.080;9.006;2023-12-28T14:26:34;12.60;99.90
31263;DHT22;17892;52.080;9.006;2023-12-28T14:29:00;12.60;99.90
31263;DHT22;17892;52.080;9.006;2023-12-28T14:31:30;12.60;99.90
31263;DHT22;17892;52.080;9.006;2023-12-28T14:33:56;12.60;99.90
31263;DHT22;17892;52.080;9.006;2023-12-28T14:36:34;12.60;99.90
31263;DHT22;17892;52.080;9.006;2023-12-28T14:39:03;12.60;99.90
31263;DHT22;17892;52.080;9.006;2023-12-28T14:41:37;12.60;99.90
31263;DHT22;17892;52.080;9.006;2023-12-28T14:44:03;12.60;99.90
31263;DHT22;17892;52.080;9.006;2023-12-28T14:46:28;12.50;99.90
31263;DHT22;17892;52.080;9.006;2023-12-28T14:48:55;12.50;99.90
31263;DHT22;17892;52.080;9.006;2023-12-28T14:51:21;12.50;99.90
31263;DHT22;17892;52.080;9.006;2023-12-28T14:53:47;12.40;99.90
31263;DHT22;17892;52.080;9.006;2023-12-28T14:56:13;12.40;99.90
31263;DHT22;17892;52.080;9.006;2023-12-28T14:58:39;12.40;99.90
31263;DHT22;17892;52.080;9.006;2023-12-28T15:01:10;12.40;99.90
31263;DHT22;17892;52.080;9.006;2023-12-28T15:03:37;12.50;99.90
31263;DHT22;17892;52.080;9.006;2023-12-28T15:06:05;12.40;99.90
31263;DHT22;17892;52.080;9.006;2023-12-28T15:08:31;12.40;99.90
31263;DHT22;17892;52.080;9.006;2023-12-28T15:10:57;12.40;99.90
31263;DHT22;17892;52.080;9.006;2023-12-28T15:13:23;12.40;99.90
31263;DHT22;17892;52.080;9.006;2023-12-28T15:15:49;12.40;99.90
31263;DHT22;17892;52.080;9.006;2023-12-28T15:18:16;12.30;99.90
31263;DHT22;17892;52.080;9.006;2023-12-28T15:20:47;12.30;99.90
31263;DHT22;17892;52.080;9.006;2023-12-28T15:23:14;12.30;99.90
31263;DHT22;17892;52.080;9.006;2023-12-28T15:25:44;12.30;99.90
31263;DHT22;17892;52.080;9.006;2023-12-28T15:28:09;12.20;99.90
31263;DHT22;17892;52.080;9.006;2023-12-28T15:30:35;12.20;99.90